sensor_id;sensor_type;location;lat;lon;timestamp;temperature;humidity
60293;DHT22;52402;52.670;6.750;2023-08-17T00:01:43;16.10;99.90
60293;DHT22;52402;52.670;6.750;2023-08-17T00:04:09;16.10;99.90
60293;DHT22;52402;52.670;6.750;2023-08-17T00:06:35;16.00;99.90
60293;DHT22;52402;52.670;6.750;2023-08-17T00:09:00;16.00;99.90
60293;DHT22;52402;52.670;6.750;2023-08-17T00:11:26;16.00;99.90
60293;DHT22;52402;52.670;6.750;2023-08-17T00:13:52;15.90;99.90
60293;DHT22;52402;52.670;6.750;2023-08-17T00:16:17;15.90;99.90
60293;DHT22;52402;52.670;6.750;2023-08-17T00:18:43;15.90;99.90
60293;DHT22;52402;52.670;6.750;2023-08-17T00:21:09;15.90;99.90
60293;DHT22;52402;52.670;6.750;2023-08-17T00:23:35;15.90;99.90
60293;DHT22;52402;52.670;6.750;2023-08-17T00:26:00;15.80;99.90
60293;DHT22;52402;52.670;6.750;2023-08-17T00:28:26;15.90;99.90
60293;DHT22;52402;52.670;6.750;2023-08-17T00:30:52;15.80;99.90
60293;DHT22;52402;52.670;6.750;2023-08-17T00:33:18;15.80;99.90
60293;DHT22;52402;52.670;6.750;2023-08-17T00:35:43;15.80;99.90
60293;DHT22;52402;52.670;6.750;2023-08-17T00:38:11;15.80;99.90
60293;DHT22;52402;52.670;6.750;2023-08-17T00:40:37;15.80;99.90
60293;DHT22;52402;52.670;6.750;2023-08-17T00:43:03;15.80;99.90
60293;DHT22;52402;52.670;6.750;2023-08-17T00:45:29;15.80;99.90
60293;DHT22;52402;52.670;6.750;2023-08-17T00:47:56;15.80;99.90
60293;DHT22;52402;52.670;6.750;2023-08-17T00:50:24;15.70;99.90
60293;DHT22;52402;52.670;6.750;2023-08-17T00:52:51;15.70;99.90
60293;DHT22;52402;52.670;6.750;2023-08-17T00:55:17;15.80;99.90
60293;DHT22;52402;52.670;6.750;2023-08-17T00:57:43;15.80;99.90
60293;DHT22;52402;52.670;6.750;2023-08-17T01:00:12;15.80;99.90
60293;DHT22;52402;52.670;6.750;2023-08-17T01:02:41;15.80;99.90
60293;DHT22;52402;52.670;6.750;2023-08-17T01:05:08;15.80;99.90
60293;DHT22;52402;52.670;6.750;2023-08-17T01:07:34;15.80;99.90
60293;DHT22;52402;52.670;6.750;2023-08-17T01:10:00;15.80;99.90
60293;DHT22;52402;52.670;6.750;2023-08-17T01:12:31;15.70;99.90
60293;DHT22;52402;52.670;6.750;2023-08-17T01:17:54;15.80;99.90
60293;DHT22;52402;52.670;6.750;2023-08-17T01:20:22;15.80;99.90
60293;DHT22;52402;52.670;6.750;2023-08-17T01:22:50;15.80;99.90
60293;DHT22;52402;52.670;6.750;2023-08-17T01:25:18;15.80;99.90
60293;DHT22;52402;52.670;6.750;2023-08-17T01:27:45;15.80;99.90
60293;DHT22;52402;52.670;6.750;2023-08-17T01:30:14;15.80;99.90
60293;DHT22;52402;52.670;6.750;2023-08-17T01:33:01;15.80;99.90
60293;DHT22;52402;52.670;6.750;2023-08-17T01:35:37;15.80;99.90
60293;DHT22;52402;52.670;6.750;2023-08-17T01:38:07;15.80;99.90
60293;DHT22;52402;52.670;6.750;2023-08-17T01:40:35;15.80;99.90
60293;DHT22;52402;52.670;6.750;2023-08-17T01:43:04;15.70;99.90
60293;DHT22;52402;52.670;6.750;2023-08-17T01:45:30;15.70;99.90
60293;DHT22;52402;52.670;6.750;2023-08-17T01:47:56;15.70;99.90
60293;DHT22;52402;52.670;6.750;2023-08-17T01:52:55;15.60;99.90
60293;DHT22;52402;52.670;6.750;2023-08-17T01:55:21;15.60;99.90
60293;DHT22;52402;52.670;6.750;2023-08-17T01:57:51;15.70;99.90
60293;DHT22;52402;52.670;6.750;2023-08-17T02:00:16;15.60;99.90
60293;DHT22;52402;52.670;6.750;2023-08-17T02:02:42;15.60;99.90
60293;DHT22;52402;52.670;6.750;2023-08-17T02:05:08;15.60;99.90
60293;DHT22;52402;52.670;6.750;2023-08-17T02:07:34;15.60;99.90
60293;DHT22;52402;52.670;6.750;2023-08-17T02:10:00;15.60;99.90
60293;DHT22;52402;52.670;6.750;2023-08-17T02:12:26;15.50;99.90
60293;DHT22;52402;52.670;6.750;2023-08-17T02:14:52;15.60;99.90
60293;DHT22;52402;52.670;6.750;2023-08-17T02:17:18;15.50;99.90
60293;DHT22;52402;52.670;6.750;2023-08-17T02:19:45;15.60;99.90
60293;DHT22;52402;52.670;6.750;2023-08-17T02:22:12;15.60;99.90
60293;DHT22;52402;52.670;6.750;2023-08-17T02:24:38;15.50;99.90
60293;DHT22;52402;52.670;6.750;2023-08-17T02:27:04;15.50;99.90
60293;DHT22;52402;52.670;6.750;2023-08-17T02:29:30;15.50;99.90
60293;DHT22;52402;52.670;6.750;2023-08-17T02:31:55;15.50;99.90
60293;DHT22;52402;52.670;6.750;2023-08-17T02:34:21;15.50;99.90
60293;DHT22;52402;52.670;6.750;2023-08-17T02:36:47;15.50;99.90
60293;DHT22;52402;52.670;6.750;2023-08-17T02:39:12;15.50;99.90
60293;DHT22;52402;52.670;6.750;2023-08-17T02:41:38;15.50;99.90
60293;DHT22;52402;52.670;6.750;2023-08-17T02:44:04;15.50;99.90
60293;DHT22;52402;52.670;6.750;2023-08-17T02:46:30;15.40;99.90
60293;DHT22;52402;52.670;6.750;2023-08-17T02:48:56;15.40;99.90
60293;DHT22;52402;52.670;6.750;2023-08-17T02:51:21;15.40;99.90
60293;DHT22;52402;52.670;6.750;2023-08-17T02:53:47;15.40;99.90
60293;DHT22;52402;52.670;6.750;2023-08-17T02:56:12;15.40;99.90
60293;DHT22;52402;52.670;6.750;2023-08-17T02:58:39;15.40;99.90
60293;DHT22;52402;52.670;6.750;2023-08-17T03:01:09;15.40;99.90
60293;DHT22;52402;52.670;6.750;2023-08-17T03:03:35;15.40;99.90
60293;DHT22;52402;52.670;6.750;2023-08-17T03:06:02;15.40;99.90
60293;DHT22;52402;52.670;6.750;2023-08-17T03:08:28;15.40;99.90
60293;DHT22;52402;52.670;6.750;2023-08-17T03:10:53;15.40;99.90
60293;DHT22;52402;52.670;6.750;2023-08-17T03:13:19;15.40;99.90
60293;DHT22;52402;52.670;6.750;2023-08-17T03:15:45;15.50;99.90
60293;DHT22;52402;52.670;6.750;2023-08-17T03:18:10;15.50;99.90
60293;DHT22;52402;52.670;6.750;2023-08-17T03:20:36;15.50;99.90
60293;DHT22;52402;52.670;6.750;2023-08-17T03:23:02;15.50;99.90
60293;DHT22;52402;52.670;6.750;2023-08-17T03:25:27;15.50;99.90
60293;DHT22;52402;52.670;6.750;2023-08-17T03:27:53;15.50;99.90
60293;DHT22;52402;52.670;6.750;2023-08-17T03:30:19;15.50;99.90
60293;DHT22;52402;52.670;6.750;2023-08-17T03:32:44;15.60;99.90
60293;DHT22;52402;52.670;6.750;2023-08-17T03:35:10;15.60;99.90
60293;DHT22;52402;52.670;6.750;2023-08-17T03:37:35;15.50;99.90
60293;DHT22;52402;52.670;6.750;2023-08-17T03:40:01;15.50;99.90
60293;DHT22;52402;52.670;6.750;2023-08-17T03:42:27;15.60;99.90
60293;DHT22;52402;52.670;6.750;2023-08-17T03:44:53;15.60;99.90
60293;DHT22;52402;52.670;6.750;2023-08-17T03:47:19;15.60;99.90
60293;DHT22;52402;52.670;6.750;2023-08-17T03:49:44;15.60;99.90
60293;DHT22;52402;52.670;6.750;2023-08-17T03:52:10;15.60;99.90
60293;DHT22;52402;52.670;6.750;2023-08-17T03:54:36;15.60;99.90
60293;DHT22;52402;52.670;6.750;2023-08-17T03:57:02;15.60;99.90
60293;DHT22;52402;52.670;6.750;2023-08-17T03:59:28;15.60;99.90
60293;DHT22;52402;52.670;6.750;2023-08-17T04:01:53;15.60;99.90
60293;DHT22;52402;52.670;6.750;2023-08-17T04:04:19;15.60;99.90
60293;DHT22;52402;52.670;6.750;2023-08-17T04:06:45;15.60;99.90
60293;DHT22;52402;52.670;6.750;2023-08-17T04:09:10;15.60;99.90
60293;DHT22;52402;52.670;6.750;2023-08-17T04:11:36;15.60;99.90
60293;DHT22;52402;52.670;6.750;2023-08-17T04:14:03;15.60;99.90
60293;DHT22;52402;52.670;6.750;2023-08-17T04:16:29;15.60;99.90
60293;DHT22;52402;52.670;6.750;2023-08-17T04:18:54;15.60;99.90
60293;DHT22;52402;52.670;6.750;2023-08-17T04:21:20;15.60;99.90
60293;DHT22;52402;52.670;6.750;2023-08-17T04:23:46;15.60;99.90
60293;DHT22;52402;52.670;6.750;2023-08-17T04:26:12;15.60;99.90
60293;DHT22;52402;52.670;6.750;2023-08-17T04:28:38;15.70;99.90
60293;DHT22;52402;52.670;6.750;2023-08-17T04:31:04;15.70;99.90
60293;DHT22;52402;52.670;6.750;2023-08-17T04:33:29;15.70;99.90
60293;DHT22;52402;52.670;6.750;2023-08-17T04:35:55;15.70;99.90
60293;DHT22;52402;52.670;6.750;2023-08-17T04:38:21;15.70;99.90
60293;DHT22;52402;52.670;6.750;2023-08-17T04:40:47;15.70;99.90
60293;DHT22;52402;52.670;6.750;2023-08-17T04:43:13;15.70;99.90
60293;DHT22;52402;52.670;6.750;2023-08-17T04:45:38;15.70;99.90
60293;DHT22;52402;52.670;6.750;2023-08-17T04:48:05;15.80;99.90
60293;DHT22;52402;52.670;6.750;2023-08-17T04:50:31;15.80;99.90
60293;DHT22;52402;52.670;6.750;2023-08-17T04:52:57;15.80;99.90
60293;DHT22;52402;52.670;6.750;2023-08-17T04:55:23;15.80;99.90
60293;DHT22;52402;52.670;6.750;2023-08-17T04:57:49;15.80;99.90
60293;DHT22;52402;52.670;6.750;2023-08-17T05:00:15;15.80;99.90
60293;DHT22;52402;52.670;6.750;2023-08-17T05:02:41;15.80;99.90
60293;DHT22;52402;52.670;6.750;2023-08-17T05:05:09;15.80;99.90
60293;DHT22;52402;52.670;6.750;2023-08-17T05:07:35;15.80;99.90
60293;DHT22;52402;52.670;6.750;2023-08-17T05:10:01;15.80;99.90
60293;DHT22;52402;52.670;6.750;2023-08-17T05:12:27;15.80;99.90
60293;DHT22;52402;52.670;6.750;2023-08-17T05:14:53;15.80;99.90
60293;DHT22;52402;52.670;6.750;2023-08-17T05:17:18;15.90;99.90
60293;DHT22;52402;52.670;6.750;2023-08-17T05:19:44;15.90;99.90
60293;DHT22;52402;52.670;6.750;2023-08-17T05:22:11;15.90;99.90
60293;DHT22;52402;52.670;6.750;2023-08-17T05:24:37;15.90;99.90
60293;DHT22;52402;52.670;6.750;2023-08-17T05:27:03;15.90;99.90
60293;DHT22;52402;52.670;6.750;2023-08-17T05:29:30;16.00;99.90
60293;DHT22;52402;52.670;6.750;2023-08-17T05:31:57;16.00;99.90
60293;DHT22;52402;52.670;6.750;2023-08-17T05:34:23;16.00;99.90
60293;DHT22;52402;52.670;6.750;2023-08-17T05:36:49;16.00;99.90
60293;DHT22;52402;52.670;6.750;2023-08-17T05:39:14;16.00;99.90
60293;DHT22;52402;52.670;6.750;2023-08-17T05:41:40;16.10;99.90
60293;DHT22;52402;52.670;6.750;2023-08-17T05:44:06;16.00;99.90
60293;DHT22;52402;52.670;6.750;2023-08-17T05:46:33;16.00;99.90
60293;DHT22;52402;52.670;6.750;2023-08-17T05:49:00;16.10;99.90
60293;DHT22;52402;52.670;6.750;2023-08-17T05:51:25;16.10;99.90
60293;DHT22;52402;52.670;6.750;2023-08-17T05:53:51;16.00;99.90
60293;DHT22;52402;52.670;6.750;2023-08-17T05:56:17;16.10;99.90
60293;DHT22;52402;52.670;6.750;2023-08-17T05:58:42;16.10;99.90
60293;DHT22;52402;52.670;6.750;2023-08-17T06:01:09;16.10;99.90
60293;DHT22;52402;52.670;6.750;2023-08-17T06:03:36;16.10;99.90
60293;DHT22;52402;52.670;6.750;2023-08-17T06:06:02;16.10;99.90
60293;DHT22;52402;52.670;6.750;2023-08-17T06:08:28;16.10;99.90
60293;DHT22;52402;52.670;6.750;2023-08-17T06:10:55;16.10;99.90
60293;DHT22;52402;52.670;6.750;2023-08-17T06:13:20;16.10;99.90
60293;DHT22;52402;52.670;6.750;2023-08-17T06:15:46;16.20;99.90
60293;DHT22;52402;52.670;6.750;2023-08-17T06:18:12;16.20;99.90
60293;DHT22;52402;52.670;6.750;2023-08-17T06:20:37;16.20;99.90
60293;DHT22;52402;52.670;6.750;2023-08-17T06:23:03;16.30;99.90
60293;DHT22;52402;52.670;6.750;2023-08-17T06:25:29;16.40;99.90
60293;DHT22;52402;52.670;6.750;2023-08-17T06:27:54;16.40;99.90
60293;DHT22;52402;52.670;6.750;2023-08-17T06:30:21;16.50;99.90
60293;DHT22;52402;52.670;6.750;2023-08-17T06:32:46;16.40;99.90
60293;DHT22;52402;52.670;6.750;2023-08-17T06:35:12;16.50;99.90
60293;DHT22;52402;52.670;6.750;2023-08-17T06:37:38;16.50;99.90
60293;DHT22;52402;52.670;6.750;2023-08-17T06:40:04;16.60;99.90
60293;DHT22;52402;52.670;6.750;2023-08-17T06:42:31;16.60;99.90
60293;DHT22;52402;52.670;6.750;2023-08-17T06:44:56;16.60;99.90
60293;DHT22;52402;52.670;6.750;2023-08-17T06:47:22;16.70;99.90
60293;DHT22;52402;52.670;6.750;2023-08-17T06:49:48;16.70;99.90
60293;DHT22;52402;52.670;6.750;2023-08-17T06:52:13;16.70;99.90
60293;DHT22;52402;52.670;6.750;2023-08-17T06:54:39;16.80;99.90
60293;DHT22;52402;52.670;6.750;2023-08-17T06:57:06;16.80;99.90
60293;DHT22;52402;52.670;6.750;2023-08-17T06:59:32;16.80;99.90
60293;DHT22;52402;52.670;6.750;2023-08-17T07:01:59;16.80;99.90
60293;DHT22;52402;52.670;6.750;2023-08-17T07:04:25;16.80;99.90
60293;DHT22;52402;52.670;6.750;2023-08-17T07:06:50;16.90;99.90
60293;DHT22;52402;52.670;6.750;2023-08-17T07:09:17;16.90;99.90
60293;DHT22;52402;52.670;6.750;2023-08-17T07:11:42;16.90;99.90
60293;DHT22;52402;52.670;6.750;2023-08-17T07:14:08;16.90;99.90
60293;DHT22;52402;52.670;6.750;2023-08-17T07:16:34;16.90;99.90
60293;DHT22;52402;52.670;6.750;2023-08-17T07:19:00;16.90;99.90
60293;DHT22;52402;52.670;6.750;2023-08-17T07:21:26;16.90;99.90
60293;DHT22;52402;52.670;6.750;2023-08-17T07:23:54;17.00;99.90
60293;DHT22;52402;52.670;6.750;2023-08-17T07:26:20;17.00;99.90
60293;DHT22;52402;52.670;6.750;2023-08-17T07:28:46;17.10;99.90
60293;DHT22;52402;52.670;6.750;2023-08-17T07:31:12;17.10;99.90
60293;DHT22;52402;52.670;6.750;2023-08-17T07:33:38;17.10;99.90
60293;DHT22;52402;52.670;6.750;2023-08-17T07:36:04;17.20;99.90
60293;DHT22;52402;52.670;6.750;2023-08-17T07:38:30;17.20;99.90
60293;DHT22;52402;52.670;6.750;2023-08-17T07:40:55;17.20;99.90
60293;DHT22;52402;52.670;6.750;2023-08-17T07:43:21;17.20;99.90
60293;DHT22;52402;52.670;6.750;2023-08-17T07:45:59;17.30;99.90
60293;DHT22;52402;52.670;6.750;2023-08-17T07:48:24;17.30;99.90
60293;DHT22;52402;52.670;6.750;2023-08-17T07:50:53;17.30;99.90
60293;DHT22;52402;52.670;6.750;2023-08-17T07:53:19;17.30;99.90
60293;DHT22;52402;52.670;6.750;2023-08-17T07:55:45;17.30;99.90
60293;DHT22;52402;52.670;6.750;2023-08-17T07:58:11;17.20;99.90
60293;DHT22;52402;52.670;6.750;2023-08-17T08:00:37;17.30;99.90
60293;DHT22;52402;52.670;6.750;2023-08-17T08:03:03;17.30;99.90
60293;DHT22;52402;52.670;6.750;2023-08-17T08:05:29;17.30;99.90
60293;DHT22;52402;52.670;6.750;2023-08-17T08:07:54;17.30;99.90
60293;DHT22;52402;52.670;6.750;2023-08-17T08:10:20;17.30;99.90
60293;DHT22;52402;52.670;6.750;2023-08-17T08:12:45;17.30;99.90
60293;DHT22;52402;52.670;6.750;2023-08-17T08:15:11;17.30;99.90
60293;DHT22;52402;52.670;6.750;2023-08-17T08:17:37;17.30;99.90
60293;DHT22;52402;52.670;6.750;2023-08-17T08:20:03;17.30;99.90
60293;DHT22;52402;52.670;6.750;2023-08-17T08:22:29;17.40;99.90
60293;DHT22;52402;52.670;6.750;2023-08-17T08:24:55;17.40;99.90
60293;DHT22;52402;52.670;6.750;2023-08-17T08:27:20;17.40;99.90
60293;DHT22;52402;52.670;6.750;2023-08-17T08:29:46;17.40;99.90
60293;DHT22;52402;52.670;6.750;2023-08-17T08:32:12;17.40;99.90
60293;DHT22;52402;52.670;6.750;2023-08-17T08:34:38;17.50;99.90
60293;DHT22;52402;52.670;6.750;2023-08-17T08:37:03;17.50;99.90
60293;DHT22;52402;52.670;6.750;2023-08-17T08:39:29;17.50;99.90
60293;DHT22;52402;52.670;6.750;2023-08-17T08:41:55;17.60;99.90
60293;DHT22;52402;52.670;6.750;2023-08-17T08:44:21;17.70;99.90
60293;DHT22;52402;52.670;6.750;2023-08-17T08:46:48;17.80;99.90
60293;DHT22;52402;52.670;6.750;2023-08-17T08:49:19;17.90;99.90
60293;DHT22;52402;52.670;6.750;2023-08-17T08:51:49;17.90;99.90
60293;DHT22;52402;52.670;6.750;2023-08-17T08:54:21;17.90;99.90
60293;DHT22;52402;52.670;6.750;2023-08-17T08:56:54;18.00;99.90
60293;DHT22;52402;52.670;6.750;2023-08-17T08:59:24;18.00;99.90
60293;DHT22;52402;52.670;6.750;2023-08-17T09:01:52;18.00;99.90
60293;DHT22;52402;52.670;6.750;2023-08-17T09:04:18;18.00;99.90
60293;DHT22;52402;52.670;6.750;2023-08-17T09:06:44;18.00;99.90
60293;DHT22;52402;52.670;6.750;2023-08-17T09:09:11;18.00;99.90
60293;DHT22;52402;52.670;6.750;2023-08-17T09:11:40;18.00;99.90
60293;DHT22;52402;52.670;6.750;2023-08-17T09:14:06;18.00;99.90
60293;DHT22;52402;52.670;6.750;2023-08-17T09:16:32;18.10;99.90
60293;DHT22;52402;52.670;6.750;2023-08-17T09:18:57;18.10;99.90
60293;DHT22;52402;52.670;6.750;2023-08-17T09:21:24;18.10;99.90
60293;DHT22;52402;52.670;6.750;2023-08-17T09:23:51;18.10;99.90
60293;DHT22;52402;52.670;6.750;2023-08-17T09:26:19;18.10;99.90
60293;DHT22;52402;52.670;6.750;2023-08-17T09:28:45;18.10;99.90
60293;DHT22;52402;52.670;6.750;2023-08-17T09:31:11;18.20;99.90
60293;DHT22;52402;52.670;6.750;2023-08-17T09:33:37;18.20;99.90
60293;DHT22;52402;52.670;6.750;2023-08-17T09:36:03;18.20;99.90
60293;DHT22;52402;52.670;6.750;2023-08-17T09:38:28;18.20;99.90
60293;DHT22;52402;52.670;6.750;2023-08-17T09:40:54;18.20;99.90
60293;DHT22;52402;52.670;6.750;2023-08-17T09:43:20;18.20;99.90
60293;DHT22;52402;52.670;6.750;2023-08-17T09:45:47;18.20;99.90
60293;DHT22;52402;52.670;6.750;2023-08-17T09:48:19;18.20;99.90
60293;DHT22;52402;52.670;6.750;2023-08-17T09:50:46;18.30;99.90
60293;DHT22;52402;52.670;6.750;2023-08-17T09:53:16;18.40;99.90
60293;DHT22;52402;52.670;6.750;2023-08-17T09:55:43;18.40;99.90
60293;DHT22;52402;52.670;6.750;2023-08-17T09:58:09;18.40;99.90
60293;DHT22;52402;52.670;6.750;2023-08-17T10:00:35;18.40;99.90
60293;DHT22;52402;52.670;6.750;2023-08-17T10:03:02;18.40;99.90
60293;DHT22;52402;52.670;6.750;2023-08-17T10:05:35;18.50;99.90
60293;DHT22;52402;52.670;6.750;2023-08-17T10:08:04;18.50;99.90
60293;DHT22;52402;52.670;6.750;2023-08-17T10:10:31;18.60;99.90
60293;DHT22;52402;52.670;6.750;2023-08-17T10:15:34;18.80;99.90
60293;DHT22;52402;52.670;6.750;2023-08-17T10:20:34;18.80;99.90
60293;DHT22;52402;52.670;6.750;2023-08-17T10:23:21;18.80;99.90
60293;DHT22;52402;52.670;6.750;2023-08-17T10:25:47;18.80;99.90
60293;DHT22;52402;52.670;6.750;2023-08-17T10:28:15;19.00;99.90
60293;DHT22;52402;52.670;6.750;2023-08-17T10:30:42;19.00;99.90
60293;DHT22;52402;52.670;6.750;2023-08-17T10:33:08;19.00;99.90
60293;DHT22;52402;52.670;6.750;2023-08-17T10:35:35;19.10;99.90
60293;DHT22;52402;52.670;6.750;2023-08-17T10:38:03;19.20;99.90
60293;DHT22;52402;52.670;6.750;2023-08-17T10:40:35;19.10;99.90
60293;DHT22;52402;52.670;6.750;2023-08-17T10:43:01;19.20;99.90
60293;DHT22;52402;52.670;6.750;2023-08-17T10:45:31;19.20;99.90
60293;DHT22;52402;52.670;6.750;2023-08-17T10:50:25;19.40;99.90
60293;DHT22;52402;52.670;6.750;2023-08-17T10:52:54;19.60;99.90
60293;DHT22;52402;52.670;6.750;2023-08-17T10:55:40;19.50;99.90
60293;DHT22;52402;52.670;6.750;2023-08-17T10:58:07;19.50;99.90
60293;DHT22;52402;52.670;6.750;2023-08-17T11:00:40;19.60;99.90
60293;DHT22;52402;52.670;6.750;2023-08-17T11:03:18;19.60;99.90
60293;DHT22;52402;52.670;6.750;2023-08-17T11:05:52;19.70;99.90
60293;DHT22;52402;52.670;6.750;2023-08-17T11:08:41;19.80;99.90
60293;DHT22;52402;52.670;6.750;2023-08-17T11:11:16;19.90;99.90
60293;DHT22;52402;52.670;6.750;2023-08-17T11:13:45;19.90;99.90
60293;DHT22;52402;52.670;6.750;2023-08-17T11:16:13;19.70;99.90
60293;DHT22;52402;52.670;6.750;2023-08-17T11:18:39;19.70;99.90
60293;DHT22;52402;52.670;6.750;2023-08-17T11:21:07;19.80;99.90
60293;DHT22;52402;52.670;6.750;2023-08-17T11:23:36;19.70;99.90
60293;DHT22;52402;52.670;6.750;2023-08-17T11:26:02;19.70;99.90
60293;DHT22;52402;52.670;6.750;2023-08-17T11:28:32;19.70;99.90
60293;DHT22;52402;52.670;6.750;2023-08-17T11:31:09;19.70;99.90
60293;DHT22;52402;52.670;6.750;2023-08-17T11:33:35;19.70;99.90
60293;DHT22;52402;52.670;6.750;2023-08-17T11:36:03;19.80;99.90
60293;DHT22;52402;52.670;6.750;2023-08-17T11:38:33;19.70;99.90
60293;DHT22;52402;52.670;6.750;2023-08-17T11:41:00;19.80;99.90
60293;DHT22;52402;52.670;6.750;2023-08-17T11:43:27;19.80;99.90
60293;DHT22;52402;52.670;6.750;2023-08-17T11:45:55;19.80;99.90
60293;DHT22;52402;52.670;6.750;2023-08-17T11:48:20;19.80;99.90
60293;DHT22;52402;52.670;6.750;2023-08-17T11:50:46;19.80;99.90
60293;DHT22;52402;52.670;6.750;2023-08-17T11:53:12;19.70;99.90
60293;DHT22;52402;52.670;6.750;2023-08-17T11:55:37;19.50;99.90
60293;DHT22;52402;52.670;6.750;2023-08-17T11:58:06;19.60;99.90
60293;DHT22;52402;52.670;6.750;2023-08-17T12:00:41;19.60;99.90
60293;DHT22;52402;52.670;6.750;2023-08-17T12:03:07;19.60;99.90
60293;DHT22;52402;52.670;6.750;2023-08-17T12:05:33;19.70;99.90
60293;DHT22;52402;52.670;6.750;2023-08-17T12:07:59;19.80;99.90
60293;DHT22;52402;52.670;6.750;2023-08-17T12:10:31;19.80;99.90
60293;DHT22;52402;52.670;6.750;2023-08-17T12:13:01;19.90;99.90
60293;DHT22;52402;52.670;6.750;2023-08-17T12:15:36;20.00;99.90
60293;DHT22;52402;52.670;6.750;2023-08-17T12:18:04;20.00;99.90
60293;DHT22;52402;52.670;6.750;2023-08-17T12:20:31;20.00;99.90
60293;DHT22;52402;52.670;6.750;2023-08-17T12:23:04;20.00;99.90
60293;DHT22;52402;52.670;6.750;2023-08-17T12:25:29;20.10;99.90
60293;DHT22;52402;52.670;6.750;2023-08-17T12:27:58;20.20;99.90
60293;DHT22;52402;52.670;6.750;2023-08-17T12:30:29;20.30;99.90
60293;DHT22;52402;52.670;6.750;2023-08-17T12:32:57;20.40;99.90
60293;DHT22;52402;52.670;6.750;2023-08-17T12:35:22;20.30;99.90
60293;DHT22;52402;52.670;6.750;2023-08-17T12:37:52;20.50;99.90
60293;DHT22;52402;52.670;6.750;2023-08-17T12:40:18;20.70;99.90
60293;DHT22;52402;52.670;6.750;2023-08-17T12:42:44;20.90;99.90
60293;DHT22;52402;52.670;6.750;2023-08-17T12:45:09;21.20;99.90
60293;DHT22;52402;52.670;6.750;2023-08-17T12:47:35;21.40;99.90
60293;DHT22;52402;52.670;6.750;2023-08-17T12:50:01;21.50;99.90
60293;DHT22;52402;52.670;6.750;2023-08-17T12:52:29;21.60;99.90
60293;DHT22;52402;52.670;6.750;2023-08-17T12:54:54;21.70;99.90
60293;DHT22;52402;52.670;6.750;2023-08-17T12:57:20;21.70;99.90
60293;DHT22;52402;52.670;6.750;2023-08-17T12:59:46;21.50;99.90
60293;DHT22;52402;52.670;6.750;2023-08-17T13:02:11;21.50;99.90
60293;DHT22;52402;52.670;6.750;2023-08-17T13:04:37;21.40;99.90
60293;DHT22;52402;52.670;6.750;2023-08-17T13:07:15;21.40;99.90
60293;DHT22;52402;52.670;6.750;2023-08-17T13:09:42;21.30;99.90
60293;DHT22;52402;52.670;6.750;2023-08-17T13:12:07;21.20;99.90
60293;DHT22;52402;52.670;6.750;2023-08-17T13:14:33;21.00;99.90
60293;DHT22;52402;52.670;6.750;2023-08-17T13:16:58;21.00;99.90
60293;DHT22;52402;52.670;6.750;2023-08-17T13:19:24;20.90;99.90
60293;DHT22;52402;52.670;6.750;2023-08-17T13:21:50;21.00;99.90
60293;DHT22;52402;52.670;6.750;2023-08-17T13:24:16;20.90;99.90
60293;DHT22;52402;52.670;6.750;2023-08-17T13:26:41;20.80;99.90
60293;DHT22;52402;52.670;6.750;2023-08-17T13:29:07;20.70;99.90
60293;DHT22;52402;52.670;6.750;2023-08-17T13:31:34;20.70;99.90
60293;DHT22;52402;52.670;6.750;2023-08-17T13:34:00;20.70;99.90
60293;DHT22;52402;52.670;6.750;2023-08-17T13:36:25;20.60;99.90
60293;DHT22;52402;52.670;6.750;2023-08-17T13:38:51;20.70;99.90
60293;DHT22;52402;52.670;6.750;2023-08-17T13:41:17;20.70;99.90
60293;DHT22;52402;52.670;6.750;2023-08-17T13:43:42;20.70;99.90
60293;DHT22;52402;52.670;6.750;2023-08-17T13:46:08;20.60;99.90
60293;DHT22;52402;52.670;6.750;2023-08-17T13:48:34;20.50;99.90
60293;DHT22;52402;52.670;6.750;2023-08-17T13:50:59;20.50;99.90
60293;DHT22;52402;52.670;6.750;2023-08-17T13:53:25;20.50;99.90
60293;DHT22;52402;52.670;6.750;2023-08-17T13:55:51;20.50;99.90
60293;DHT22;52402;52.670;6.750;2023-08-17T13:58:17;20.60;99.90
60293;DHT22;52402;52.670;6.750;2023-08-17T14:00:43;20.60;99.90
60293;DHT22;52402;52.670;6.750;2023-08-17T14:03:09;20.60;99.90
60293;DHT22;52402;52.670;6.750;2023-08-17T14:05:34;20.60;99.90
60293;DHT22;52402;52.670;6.750;2023-08-17T14:08:00;20.50;99.90
60293;DHT22;52402;52.670;6.750;2023-08-17T14:10:26;20.60;99.90
60293;DHT22;52402;52.670;6.750;2023-08-17T14:12:51;20.50;99.90
60293;DHT22;52402;52.670;6.750;2023-08-17T14:15:17;20.60;99.90
60293;DHT22;52402;52.670;6.750;2023-08-17T14:17:43;20.70;99.90
60293;DHT22;52402;52.670;6.750;2023-08-17T14:20:09;20.70;99.90
60293;DHT22;52402;52.670;6.750;2023-08-17T14:22:34;20.70;99.90
60293;DHT22;52402;52.670;6.750;2023-08-17T14:25:00;20.60;99.90
60293;DHT22;52402;52.670;6.750;2023-08-17T14:27:26;20.70;99.90
60293;DHT22;52402;52.670;6.750;2023-08-17T14:29:51;20.70;99.90
60293;DHT22;52402;52.670;6.750;2023-08-17T14:32:18;20.70;99.90
60293;DHT22;52402;52.670;6.750;2023-08-17T14:34:43;20.70;99.90
60293;DHT22;52402;52.670;6.750;2023-08-17T14:37:09;20.70;99.90
60293;DHT22;52402;52.670;6.750;2023-08-17T14:39:35;20.80;99.90
60293;DHT22;52402;52.670;6.750;2023-08-17T14:42:00;20.80;99.90
60293;DHT22;52402;52.670;6.750;2023-08-17T14:44:26;20.70;99.90
60293;DHT22;52402;52.670;6.750;2023-08-17T14:46:52;20.70;99.90
60293;DHT22;52402;52.670;6.750;2023-08-17T14:49:17;20.60;99.90
60293;DHT22;52402;52.670;6.750;2023-08-17T14:51:43;20.60;99.90
60293;DHT22;52402;52.670;6.750;2023-08-17T14:54:09;20.60;99.90
60293;DHT22;52402;52.670;6.750;2023-08-17T14:56:35;20.40;99.90
60293;DHT22;52402;52.670;6.750;2023-08-17T14:59:01;20.40;99.90
60293;DHT22;52402;52.670;6.750;2023-08-17T15:01:28;20.30;99.90
60293;DHT22;52402;52.670;6.750;2023-08-17T15:03:53;20.30;99.90
60293;DHT22;52402;52.670;6.750;2023-08-17T15:06:19;20.20;99.90
60293;DHT22;52402;52.670;6.750;2023-08-17T15:08:49;20.20;99.90
60293;DHT22;52402;52.670;6.750;2023-08-17T15:11:15;20.20;99.90
60293;DHT22;52402;52.670;6.750;2023-08-17T15:13:41;20.10;99.90
60293;DHT22;52402;52.670;6.750;2023-08-17T15:16:06;20.10;99.90
60293;DHT22;52402;52.670;6.750;2023-08-17T15:18:32;20.10;99.90
60293;DHT22;52402;52.670;6.750;2023-08-17T15:20:58;20.10;99.90
60293;DHT22;52402;52.670;6.750;2023-08-17T15:23:24;20.00;99.90
60293;DHT22;52402;52.670;6.750;2023-08-17T15:25:49;20.10;99.90
60293;DHT22;52402;52.670;6.750;2023-08-17T15:28:15;20.10;99.90
60293;DHT22;52402;52.670;6.750;2023-08-17T15:30:40;20.10;99.90
60293;DHT22;52402;52.670;6.750;2023-08-17T15:33:07;20.10;99.90
60293;DHT22;52402;52.670;6.750;2023-08-17T15:35:33;20.10;99.90
60293;DHT22;52402;52.670;6.750;2023-08-17T15:37:58;20.10;99.90
60293;DHT22;52402;52.670;6.750;2023-08-17T15:40:24;20.10;99.90